createdAt,value
2017-12-08T00:00:23.121Z,95.93
2017-12-08T00:02:50.628Z,95.87
2017-12-08T00:05:18.124Z,94.33
2017-12-08T00:07:45.816Z,86.13
2017-12-08T00:10:13.532Z,94.37
2017-12-08T00:12:41.024Z,98.73
2017-12-08T00:15:08.528Z,102.27
2017-12-08T00:17:36.618Z,89.03
2017-12-08T00:20:05.119Z,87.13
2017-12-08T00:22:32.661Z,102.27
2017-12-08T00:25:02.974Z,112.87
2017-12-08T00:27:31.363Z,98.77
2017-12-08T00:30:00.378Z,88.63
2017-12-08T00:32:27.933Z,105.47
2017-12-08T00:34:55.488Z,89.90
2017-12-08T00:37:23.760Z,82.77
2017-12-08T00:39:51.363Z,92.10
2017-12-08T00:42:18.971Z,93.00
2017-12-08T00:44:47.468Z,81.93
2017-12-08T00:47:15.008Z,88.00
2017-12-08T00:49:43.376Z,77.77
2017-12-08T00:52:11.063Z,90.07
2017-12-08T00:54:39.592Z,82.90
2017-12-08T00:57:07.153Z,85.73
2017-12-08T00:59:34.852Z,90.70
2017-12-08T01:02:02.435Z,89.13
2017-12-08T01:04:31.766Z,89.27
2017-12-08T01:06:59.368Z,86.70
2017-12-08T01:09:26.929Z,88.00
2017-12-08T01:11:54.502Z,90.97
2017-12-08T01:14:22.129Z,91.00
2017-12-08T01:16:49.718Z,102.23
2017-12-08T01:19:18.082Z,95.10
2017-12-08T01:21:45.658Z,91.00
2017-12-08T01:24:14.054Z,99.20
2017-12-08T01:26:43.331Z,104.33
2017-12-08T01:29:11.641Z,107.03
2017-12-08T01:31:39.221Z,98.87
2017-12-08T01:34:06.770Z,126.80
2017-12-08T01:36:34.359Z,119.97
2017-12-08T01:39:01.910Z,111.23
2017-12-08T01:41:30.063Z,116.13
2017-12-08T01:43:57.635Z,108.93
2017-12-08T01:46:25.193Z,110.70
2017-12-08T01:48:52.744Z,110.33
2017-12-08T01:51:20.315Z,113.67
2017-12-08T01:53:47.876Z,114.50
2017-12-08T01:56:15.411Z,135.30
2017-12-08T01:58:43.024Z,116.00
2017-12-08T02:01:10.567Z,110.00
2017-12-08T02:03:38.122Z,121.50
2017-12-08T02:06:05.725Z,116.27
2017-12-08T02:08:34.055Z,119.90
2017-12-08T02:11:01.697Z,131.40
2017-12-08T02:13:29.332Z,115.53
2017-12-08T02:15:56.867Z,118.80
2017-12-08T02:18:25.945Z,114.47
2017-12-08T02:20:53.514Z,114.27
2017-12-08T02:23:21.131Z,117.93
2017-12-08T02:25:48.715Z,108.97
2017-12-08T02:28:16.277Z,118.93
2017-12-08T02:30:43.919Z,121.30
2017-12-08T02:33:11.488Z,117.83
2017-12-08T02:35:39.103Z,123.93
2017-12-08T02:38:07.442Z,115.73
2017-12-08T02:40:36.548Z,119.03
2017-12-08T02:43:04.917Z,119.17
2017-12-08T02:45:32.491Z,118.27
2017-12-08T02:48:01.236Z,125.60
2017-12-08T02:50:28.851Z,117.50
2017-12-08T02:52:57.542Z,109.27
2017-12-08T02:55:25.244Z,116.93
2017-12-08T02:57:52.854Z,109.50
2017-12-08T03:00:20.974Z,107.60
2017-12-08T03:02:48.588Z,102.03
2017-12-08T03:05:17.736Z,99.93
2017-12-08T03:07:45.408Z,100.73
2017-12-08T03:10:13.642Z,113.67
2017-12-08T03:12:41.188Z,106.53
2017-12-08T03:15:09.501Z,96.70
2017-12-08T03:17:37.703Z,94.17
2017-12-08T03:20:05.563Z,83.73
2017-12-08T03:22:33.989Z,85.63
2017-12-08T03:25:01.731Z,91.73
2017-12-08T03:27:30.126Z,101.47
2017-12-08T03:29:57.716Z,88.17
2017-12-08T03:32:25.302Z,91.80
2017-12-08T03:34:52.865Z,98.90
2017-12-08T03:37:20.480Z,102.90
2017-12-08T03:39:48.267Z,113.13
2017-12-08T03:42:16.071Z,121.87
2017-12-08T03:44:43.605Z,106.23
2017-12-08T03:47:11.179Z,101.57
2017-12-08T03:49:38.737Z,108.67
2017-12-08T03:52:06.298Z,112.73
2017-12-08T03:54:33.832Z,116.90
2017-12-08T03:57:01.479Z,118.10
2017-12-08T03:59:29.029Z,117.17
2017-12-08T04:01:56.559Z,122.20
2017-12-08T04:04:24.178Z,106.63
2017-12-08T04:06:51.702Z,113.67
2017-12-08T04:09:19.236Z,115.20
2017-12-08T04:11:46.799Z,115.63
2017-12-08T04:14:14.336Z,110.47
2017-12-08T04:16:42.073Z,115.87
2017-12-08T04:19:10.374Z,109.90
2017-12-08T04:21:37.900Z,115.40
2017-12-08T04:24:05.476Z,108.63
2017-12-08T04:26:33.029Z,100.20
2017-12-08T04:29:01.355Z,97.70
2017-12-08T04:31:29.102Z,93.13
2017-12-08T04:33:58.375Z,91.87
2017-12-08T04:36:26.236Z,89.33
2017-12-08T04:38:53.806Z,99.80
2017-12-08T04:41:21.451Z,101.33
2017-12-08T04:43:49.771Z,108.90
2017-12-08T04:46:17.362Z,107.33
2017-12-08T04:48:45.653Z,110.33
2017-12-08T04:51:13.251Z,102.33
2017-12-08T04:53:40.818Z,101.90
2017-12-08T04:56:08.381Z,110.33
2017-12-08T04:58:35.950Z,111.07
2017-12-08T05:01:03.683Z,104.93
2017-12-08T05:03:31.257Z,116.67
2017-12-08T05:05:58.846Z,108.47
2017-12-08T05:08:26.382Z,103.43
2017-12-08T05:10:53.972Z,116.60
2017-12-08T05:13:21.531Z,122.83
2017-12-08T05:15:49.394Z,130.40
2017-12-08T05:18:17.921Z,132.70
2017-12-08T05:20:46.278Z,131.60
2017-12-08T05:23:13.870Z,122.03
2017-12-08T05:25:41.430Z,117.10
2017-12-08T05:28:09.919Z,114.27
2017-12-08T05:30:37.474Z,123.67
2017-12-08T05:33:05.750Z,114.07
2017-12-08T05:35:33.325Z,109.47
2017-12-08T05:38:01.852Z,106.90
2017-12-08T05:40:30.163Z,119.17
2017-12-08T05:42:58.496Z,114.77
2017-12-08T05:45:26.052Z,114.60
2017-12-08T05:47:53.669Z,120.37
2017-12-08T05:50:22.269Z,123.30
2017-12-08T05:52:49.862Z,120.33
2017-12-08T05:55:17.465Z,125.97
2017-12-08T05:57:44.988Z,126.20
2017-12-08T06:00:13.339Z,114.27
2017-12-08T06:02:41.061Z,115.33
2017-12-08T06:05:08.627Z,108.53
2017-12-08T06:07:37.135Z,124.57
2017-12-08T06:10:05.070Z,114.70
2017-12-08T06:12:32.738Z,122.33
2017-12-08T06:15:01.144Z,118.27
2017-12-08T06:17:29.639Z,116.07
2017-12-08T06:19:57.944Z,117.20
2017-12-08T06:22:25.575Z,110.67
2017-12-08T06:24:54.983Z,120.00
2017-12-08T06:27:22.674Z,126.47
2017-12-08T06:29:50.247Z,123.87
2017-12-08T06:32:17.823Z,125.17
2017-12-08T06:34:45.386Z,126.20
2017-12-08T06:37:13.036Z,121.30
2017-12-08T06:39:41.341Z,119.07
2017-12-08T06:42:08.913Z,133.47
2017-12-08T06:44:36.434Z,130.47
2017-12-08T06:47:04.035Z,153.10
2017-12-08T06:49:31.567Z,144.97
2017-12-08T06:51:59.117Z,142.30
2017-12-08T06:54:26.816Z,130.87
2017-12-08T06:56:54.339Z,133.77
2017-12-08T06:59:21.900Z,120.77
2017-12-08T07:01:49.468Z,141.67
2017-12-08T07:04:17.761Z,124.20
2017-12-08T07:06:45.352Z,120.23
2017-12-08T07:09:12.968Z,128.17
2017-12-08T07:11:40.546Z,126.87
2017-12-08T07:14:08.110Z,126.43
2017-12-08T07:16:35.689Z,138.10
2017-12-08T07:19:03.709Z,124.37
2017-12-08T07:21:31.288Z,120.73
2017-12-08T07:23:58.879Z,126.30
2017-12-08T07:26:26.429Z,125.67
2017-12-08T07:28:53.994Z,116.33
2017-12-08T07:31:21.625Z,126.20
2017-12-08T07:33:49.192Z,121.30
2017-12-08T07:36:16.735Z,121.97
2017-12-08T07:38:44.277Z,122.13
2017-12-08T07:41:11.838Z,126.90
2017-12-08T07:43:39.411Z,130.80
2017-12-08T07:46:06.989Z,124.70
2017-12-08T07:48:34.569Z,124.47
2017-12-08T07:51:02.194Z,126.87
2017-12-08T07:53:31.303Z,127.37
2017-12-08T07:55:58.879Z,135.53
2017-12-08T07:58:26.741Z,113.13
2017-12-08T08:00:54.311Z,125.70
2017-12-08T08:03:21.857Z,102.13
2017-12-08T08:05:49.427Z,109.37
2017-12-08T08:08:17.024Z,108.60
2017-12-08T08:10:44.592Z,107.20
2017-12-08T08:13:12.263Z,106.77
2017-12-08T08:15:39.886Z,109.90
2017-12-08T08:18:07.483Z,121.37
2017-12-08T08:20:35.115Z,103.53
2017-12-08T08:23:02.710Z,107.80
2017-12-08T08:25:31.152Z,114.63
2017-12-08T08:27:58.680Z,114.33
2017-12-08T08:30:26.278Z,112.47
2017-12-08T08:32:53.821Z,122.50
2017-12-08T08:35:21.432Z,115.00
2017-12-08T08:37:49.764Z,120.53
2017-12-08T08:40:17.413Z,114.67
2017-12-08T08:42:44.963Z,118.97
2017-12-08T08:45:12.852Z,112.70
2017-12-08T08:47:40.386Z,107.93
2017-12-08T08:50:07.921Z,110.23
2017-12-08T08:52:35.515Z,124.27
2017-12-08T08:55:03.180Z,120.43
2017-12-08T08:57:30.805Z,116.53
2017-12-08T08:59:59.102Z,115.33
2017-12-08T09:02:26.724Z,109.30
2017-12-08T09:04:54.324Z,122.37
2017-12-08T09:07:21.923Z,126.30
2017-12-08T09:09:49.529Z,105.53
2017-12-08T09:12:17.125Z,119.10
2017-12-08T09:14:44.675Z,105.93
2017-12-08T09:17:12.254Z,113.93
2017-12-08T09:19:39.819Z,109.07
2017-12-08T09:22:07.403Z,112.20
2017-12-08T09:24:34.947Z,111.97
2017-12-08T09:27:02.519Z,112.33
2017-12-08T09:29:30.967Z,105.57
2017-12-08T09:31:58.574Z,120.03
2017-12-08T09:34:26.966Z,106.23
2017-12-08T09:36:55.310Z,119.40
2017-12-08T09:39:22.899Z,110.07
2017-12-08T09:41:50.515Z,130.97
2017-12-08T09:44:18.036Z,107.67
2017-12-08T09:46:46.345Z,106.33
2017-12-08T09:49:13.890Z,119.00
2017-12-08T09:51:41.482Z,122.43
2017-12-08T09:54:09.033Z,125.30
2017-12-08T09:56:36.609Z,127.40
2017-12-08T09:59:04.145Z,115.40
2017-12-08T10:01:31.740Z,122.73
2017-12-08T10:03:59.454Z,114.73
2017-12-08T10:06:27.063Z,114.43
2017-12-08T10:08:54.613Z,118.43
2017-12-08T10:11:22.202Z,120.83
2017-12-08T10:13:49.837Z,119.50
2017-12-08T10:16:17.384Z,111.53
2017-12-08T10:18:44.918Z,114.50
2017-12-08T10:21:12.528Z,112.50
2017-12-08T10:23:40.082Z,112.53
2017-12-08T10:26:07.674Z,116.90
2017-12-08T10:28:36.004Z,118.50
2017-12-08T10:31:03.753Z,125.03
2017-12-08T10:33:31.368Z,118.90
2017-12-08T10:35:59.181Z,131.23
2017-12-08T10:38:26.756Z,118.10
2017-12-08T10:40:54.316Z,130.87
2017-12-08T10:43:21.924Z,112.50
2017-12-08T10:45:50.240Z,126.80
2017-12-08T10:48:17.807Z,129.37
2017-12-08T10:50:45.413Z,136.47
2017-12-08T10:53:13.822Z,127.97
2017-12-08T10:55:41.388Z,116.83
2017-12-08T10:58:08.952Z,141.30
2017-12-08T11:00:42.081Z,126.23
2017-12-08T11:03:09.630Z,126.43
2017-12-08T11:05:37.254Z,152.47
2017-12-08T11:08:04.927Z,123.30
2017-12-08T11:10:32.505Z,137.90
2017-12-08T11:13:00.241Z,133.00
2017-12-08T11:15:27.895Z,116.67
2017-12-08T11:17:55.484Z,127.00
2017-12-08T11:20:23.033Z,122.33
2017-12-08T11:22:50.629Z,116.63
2017-12-08T11:25:18.943Z,133.23
2017-12-08T11:27:47.324Z,114.10
2017-12-08T11:30:15.013Z,109.20
2017-12-08T11:32:42.566Z,119.17
2017-12-08T11:35:10.129Z,118.10
2017-12-08T11:37:38.354Z,117.70
2017-12-08T11:40:06.725Z,107.60
2017-12-08T11:42:34.319Z,113.03
2017-12-08T11:45:02.090Z,120.67
2017-12-08T11:47:30.295Z,100.03
2017-12-08T11:49:57.842Z,112.07
2017-12-08T11:52:25.381Z,95.93
2017-12-08T11:54:52.926Z,98.73
2017-12-08T11:57:20.487Z,101.23
2017-12-08T11:59:48.056Z,93.43
2017-12-08T12:02:15.665Z,108.00
2017-12-08T12:04:43.224Z,91.30
2017-12-08T12:07:10.770Z,104.43
2017-12-08T12:09:38.350Z,90.27
2017-12-08T12:12:05.879Z,104.30
2017-12-08T12:14:33.448Z,103.33
2017-12-08T12:17:01.006Z,104.80
2017-12-08T12:19:28.580Z,86.47
2017-12-08T12:21:56.146Z,88.83
2017-12-08T12:24:23.674Z,90.50
2017-12-08T12:26:51.267Z,88.53
2017-12-08T12:29:18.802Z,97.43
2017-12-08T12:31:46.848Z,98.30
2017-12-08T12:34:14.384Z,88.40
2017-12-08T12:36:42.715Z,86.30
2017-12-08T12:39:10.349Z,78.97
2017-12-08T12:41:38.246Z,69.13
2017-12-08T12:44:05.805Z,78.20
2017-12-08T12:46:33.435Z,70.37
2017-12-08T12:49:01.041Z,82.30
2017-12-08T12:51:28.779Z,66.37
2017-12-08T12:53:56.370Z,68.17
2017-12-08T12:56:23.901Z,71.77
2017-12-08T12:58:51.486Z,76.40
2017-12-08T13:01:19.039Z,77.07
2017-12-08T13:03:46.813Z,63.00
2017-12-08T13:06:14.392Z,66.80
2017-12-08T13:08:41.939Z,84.47
2017-12-08T13:11:09.594Z,68.67
2017-12-08T13:13:37.178Z,69.73
2017-12-08T13:16:05.528Z,75.03
2017-12-08T13:18:33.057Z,70.33
2017-12-08T13:21:00.578Z,66.43
2017-12-08T13:23:29.823Z,68.70
2017-12-08T13:35:37.443Z,60.90
2017-12-08T13:38:05.824Z,66.30
2017-12-08T13:40:33.374Z,66.30
2017-12-08T13:43:00.953Z,73.80
2017-12-08T13:45:29.535Z,77.87
2017-12-08T13:47:57.118Z,64.80
2017-12-08T13:50:24.696Z,64.17
2017-12-08T13:52:52.363Z,69.20
2017-12-08T13:55:31.672Z,65.93
2017-12-08T13:57:59.212Z,61.87
2017-12-08T14:00:27.885Z,57.57
2017-12-08T14:02:56.206Z,64.53
2017-12-08T14:05:23.791Z,58.70
2017-12-08T14:07:51.407Z,55.23
2017-12-08T14:10:19.007Z,59.87
2017-12-08T14:12:46.635Z,56.60
2017-12-08T14:15:14.277Z,56.13
2017-12-08T14:17:42.600Z,58.20
2017-12-08T14:20:10.190Z,63.17
2017-12-08T14:22:37.761Z,56.90
2017-12-08T14:25:05.305Z,57.83
2017-12-08T14:27:32.929Z,56.07
2017-12-08T14:30:00.512Z,63.80
2017-12-08T14:32:28.136Z,54.33
2017-12-08T14:34:55.715Z,56.47
2017-12-08T14:37:23.278Z,59.73
2017-12-08T14:39:50.857Z,58.73
2017-12-08T14:42:18.386Z,62.17
2017-12-08T14:44:45.921Z,68.63
2017-12-08T14:47:13.493Z,62.40
2017-12-08T14:49:41.321Z,63.90
2017-12-08T14:52:08.889Z,68.00
2017-12-08T14:54:36.439Z,66.03
2017-12-08T14:57:04.026Z,59.57
2017-12-08T14:59:31.578Z,62.10
2017-12-08T15:01:59.942Z,61.33
2017-12-08T15:04:27.505Z,58.40
2017-12-08T15:06:55.061Z,57.87
2017-12-08T15:09:22.643Z,61.90
2017-12-08T15:11:50.981Z,56.50
2017-12-08T15:14:18.582Z,67.40
2017-12-08T15:16:46.909Z,55.17
2017-12-08T15:19:14.528Z,56.70
2017-12-08T15:21:42.088Z,57.53
2017-12-08T15:24:09.765Z,52.47
2017-12-08T15:26:37.291Z,57.60
2017-12-08T15:29:05.737Z,58.57
2017-12-08T15:31:33.316Z,54.13
2017-12-08T15:34:00.898Z,65.90
2017-12-08T15:36:29.268Z,53.67
2017-12-08T15:38:56.873Z,58.90
2017-12-08T15:41:25.134Z,58.93
2017-12-08T15:43:52.697Z,68.47
2017-12-08T15:46:20.660Z,61.23
2017-12-08T15:48:48.313Z,57.03
2017-12-08T15:51:15.874Z,56.23
2017-12-08T15:53:43.473Z,55.83
2017-12-08T15:56:11.085Z,65.27
2017-12-08T15:58:38.695Z,54.93
2017-12-08T16:01:06.272Z,53.03
2017-12-08T16:03:33.836Z,51.80
2017-12-08T16:06:01.427Z,52.27
2017-12-08T16:08:29.844Z,53.93
2017-12-08T16:10:57.494Z,58.53
2017-12-08T16:13:25.042Z,58.20
2017-12-08T16:15:52.629Z,49.83
2017-12-08T16:18:20.198Z,55.13
2017-12-08T16:20:47.794Z,38.33
2017-12-08T16:23:15.346Z,40.17
2017-12-08T16:25:42.963Z,34.60
2017-12-08T16:28:10.513Z,37.00
2017-12-08T16:30:38.114Z,27.67
2017-12-08T16:33:05.740Z,27.10
2017-12-08T16:35:33.300Z,16.67
2017-12-08T16:38:00.875Z,14.10
2017-12-08T16:40:28.478Z,14.13
2017-12-08T16:42:56.783Z,10.63
2017-12-08T16:45:24.345Z,15.07
2017-12-08T16:47:51.931Z,23.60
2017-12-08T16:50:19.510Z,13.03
2017-12-08T16:52:47.085Z,8.27
2017-12-08T16:55:15.518Z,9.10
2017-12-08T16:57:43.051Z,7.83
2017-12-08T17:00:11.340Z,9.97
2017-12-08T17:02:38.948Z,9.57
2017-12-08T17:05:06.544Z,10.10
2017-12-08T17:07:34.814Z,10.17
2017-12-08T17:10:02.486Z,6.10
2017-12-08T17:12:30.011Z,5.53
2017-12-08T17:14:57.572Z,6.20
2017-12-08T17:17:25.157Z,5.67
2017-12-08T17:19:53.682Z,5.20
2017-12-08T17:22:21.248Z,6.27
2017-12-08T17:24:48.838Z,4.97
2017-12-08T17:27:16.467Z,6.20
2017-12-08T17:29:44.000Z,7.60
2017-12-08T17:32:11.603Z,5.57
2017-12-08T17:34:39.231Z,5.00
2017-12-08T17:37:07.096Z,7.33
2017-12-08T17:39:34.701Z,3.90
2017-12-08T17:42:02.287Z,4.17
2017-12-08T17:44:31.342Z,5.73
2017-12-08T17:46:58.958Z,6.93
2017-12-08T17:49:27.346Z,5.40
2017-12-08T18:04:50.586Z,7.43
2017-12-08T18:07:18.205Z,6.60
2017-12-08T18:09:45.781Z,6.43
2017-12-08T18:12:13.430Z,4.93
2017-12-08T18:14:41.034Z,7.70
2017-12-08T18:17:08.692Z,8.50
2017-12-08T18:19:36.312Z,5.17
2017-12-08T18:22:03.845Z,9.10
2017-12-08T18:24:31.368Z,5.90
2017-12-08T18:26:59.691Z,8.90
2017-12-08T18:29:27.941Z,8.40
2017-12-08T18:31:55.494Z,11.70
2017-12-08T18:34:23.722Z,7.20
2017-12-08T18:36:51.332Z,7.17
2017-12-08T18:39:18.885Z,6.63
2017-12-08T18:41:47.255Z,8.07
2017-12-08T18:44:14.831Z,7.80
2017-12-08T18:46:42.362Z,7.53
2017-12-08T18:49:09.950Z,14.33
2017-12-08T18:51:37.611Z,6.10
2017-12-08T18:54:05.916Z,8.70
2017-12-08T18:56:33.526Z,9.63
2017-12-08T18:59:01.064Z,8.97
2017-12-08T19:01:29.042Z,16.80
2017-12-08T19:03:56.617Z,10.03
2017-12-08T19:06:24.251Z,12.00
2017-12-08T19:08:51.911Z,18.20
2017-12-08T19:11:19.472Z,16.30
2017-12-08T19:13:47.019Z,13.00
2017-12-08T19:16:14.603Z,17.17
2017-12-08T19:18:42.162Z,8.70
2017-12-08T19:21:09.691Z,25.73
2017-12-08T19:23:37.574Z,21.23
2017-12-08T19:26:05.170Z,35.57
2017-12-08T19:28:33.023Z,14.10
2017-12-08T19:31:00.586Z,32.63
2017-12-08T19:33:28.167Z,29.63
2017-12-08T19:35:56.528Z,39.27
2017-12-08T19:38:24.088Z,27.77
2017-12-08T19:40:51.633Z,23.17
2017-12-08T19:43:19.196Z,9.97
2017-12-08T19:45:46.725Z,6.77
2017-12-08T19:48:14.364Z,14.13
2017-12-08T19:50:41.932Z,22.33
2017-12-08T19:53:09.465Z,16.40
2017-12-08T19:55:37.170Z,10.17
2017-12-08T19:58:04.933Z,6.63
2017-12-08T20:00:32.544Z,9.30
2017-12-08T20:03:00.121Z,6.27
2017-12-08T20:05:27.845Z,6.63
2017-12-08T20:07:55.507Z,4.17
2017-12-08T20:10:23.042Z,6.87
2017-12-08T20:12:51.211Z,5.83
2017-12-08T20:15:19.000Z,6.30
2017-12-08T20:17:46.568Z,6.60
2017-12-08T20:20:14.362Z,7.00
2017-12-08T20:22:42.794Z,12.47
2017-12-08T20:25:10.344Z,12.00
2017-12-08T20:27:37.906Z,9.47
2017-12-08T20:30:06.400Z,9.77
2017-12-08T20:32:33.946Z,14.97
2017-12-08T20:35:01.512Z,8.83
2017-12-08T20:37:29.110Z,11.63
2017-12-08T20:39:56.686Z,8.17
2017-12-08T20:42:24.982Z,6.70
2017-12-08T20:44:52.533Z,7.97
2017-12-08T20:47:20.137Z,9.87
2017-12-08T20:49:47.661Z,11.30
2017-12-08T20:52:15.223Z,7.47
2017-12-08T20:54:43.316Z,8.73
2017-12-08T20:57:10.884Z,10.33
2017-12-08T20:59:39.451Z,9.37
2017-12-08T21:02:07.735Z,12.43
2017-12-08T21:04:35.278Z,6.30
2017-12-08T21:07:02.890Z,6.40
2017-12-08T21:09:31.206Z,5.90
2017-12-08T21:11:58.738Z,7.97
2017-12-08T21:14:26.335Z,4.00
2017-12-08T21:16:54.880Z,10.20
2017-12-08T21:19:22.414Z,4.70
2017-12-08T21:21:50.032Z,8.53
2017-12-08T21:24:17.547Z,4.07
2017-12-08T21:26:45.131Z,5.77
2017-12-08T21:29:12.748Z,5.00
2017-12-08T21:31:40.270Z,8.50
2017-12-08T21:34:07.784Z,7.13
2017-12-08T21:36:35.340Z,6.90
2017-12-08T21:39:02.898Z,6.47
2017-12-08T21:41:31.376Z,8.87
2017-12-08T21:43:58.936Z,4.23
2017-12-08T21:46:26.476Z,7.90
2017-12-08T21:48:54.015Z,6.10
2017-12-08T21:51:21.602Z,5.17
2017-12-08T21:53:49.178Z,6.03
2017-12-08T21:56:16.711Z,4.73
2017-12-08T21:58:44.269Z,7.47
2017-12-08T22:01:11.883Z,7.10
2017-12-08T22:03:40.258Z,7.57
2017-12-08T22:06:07.847Z,5.73
2017-12-08T22:08:35.384Z,6.10
2017-12-08T22:11:03.109Z,4.53
2017-12-08T22:13:30.649Z,3.60
2017-12-08T22:15:58.218Z,5.00
2017-12-08T22:18:26.080Z,3.67
2017-12-08T22:20:53.620Z,3.73
2017-12-08T22:23:21.238Z,3.60
2017-12-08T22:25:49.641Z,3.47
2017-12-08T22:28:17.206Z,3.73
2017-12-08T22:30:46.484Z,3.40
2017-12-08T22:33:14.063Z,6.37
2017-12-08T22:35:41.611Z,5.83
2017-12-08T22:38:09.943Z,5.53
2017-12-08T22:40:37.516Z,5.90
2017-12-08T22:43:05.039Z,5.70
2017-12-08T22:45:32.697Z,5.53
2017-12-08T22:48:00.289Z,3.83
2017-12-08T22:50:27.840Z,7.33
2017-12-08T22:52:55.528Z,5.50
2017-12-08T22:55:23.103Z,4.93
2017-12-08T22:57:50.743Z,3.43
2017-12-08T23:00:31.390Z,3.97
2017-12-08T23:02:58.918Z,3.73
2017-12-08T23:05:26.469Z,3.90
2017-12-08T23:07:54.047Z,3.47
2017-12-08T23:10:21.675Z,4.60
2017-12-08T23:12:49.198Z,2.90
2017-12-08T23:15:17.324Z,3.80
2017-12-08T23:17:44.848Z,6.50
2017-12-08T23:20:12.375Z,3.37
2017-12-08T23:22:39.962Z,4.23
2017-12-08T23:25:07.494Z,3.40
2017-12-08T23:27:35.029Z,3.40
2017-12-08T23:30:02.640Z,3.30
2017-12-08T23:32:30.175Z,3.17
2017-12-08T23:34:57.693Z,3.40
2017-12-08T23:37:25.398Z,3.10
2017-12-08T23:39:53.227Z,3.87
2017-12-08T23:42:21.549Z,3.73
2017-12-08T23:44:49.986Z,6.87
2017-12-08T23:47:18.843Z,6.37
2017-12-08T23:49:46.414Z,3.33
2017-12-08T23:52:14.025Z,8.30
2017-12-08T23:54:41.574Z,3.13
2017-12-08T23:57:09.130Z,3.23
2017-12-08T23:59:36.769Z,3.23
